RYR8CN LROP-EGCC
Flight info
| Callsign | RYR8CN |
|---|---|
| Flight time | 3h 7m |
| Altitude | 36000 |
| Route | N0444F360 SOKRU DCT OXDOC DCT BUDOP DCT ABETI DCT RENKA DCT INBED DCT BOMBI DCT ADKUV DCT SOGRI DCT DENUT L610 LAM UN57 WELIN T420 ELVOS |
| Aircraft | B738/M-VGDW/C |
Departure
| Time | 2026-05-04 23:39 |
|---|---|
| Airport | Bucharest Henri Coandă International Airport (LROP) |
Arrival
| Time | 2026-05-05 02:47 |
|---|---|
| Airport | Manchester Airport (EGCC) |
| Time | Latitude | Longitude | Altitude | Speed | Heading |
|---|---|---|---|---|---|
| 2026-05-04 22:47 | 44.56913 | 26.09415 | 322 ft | 0 kts | 173° |
| 2026-05-04 23:30 | 44.56919 | 26.09414 | 322 ft | 2 kts | 174° |
| 2026-05-04 23:30 | 44.56938 | 26.09412 | 322 ft | 3 kts | 182° |
| 2026-05-04 23:31 | 44.56958 | 26.09415 | 322 ft | 3 kts | 194° |
| 2026-05-04 23:31 | 44.56976 | 26.09425 | 322 ft | 3 kts | 219° |
| 2026-05-04 23:31 | 44.56987 | 26.09443 | 322 ft | 2 kts | 261° |
| 2026-05-04 23:31 | 44.56989 | 26.09464 | 322 ft | 2 kts | 263° |
| 2026-05-04 23:32 | 44.56989 | 26.09472 | 322 ft | 0 kts | 263° |
| 2026-05-04 23:34 | 44.56988 | 26.09453 | 322 ft | 6 kts | 263° |
| 2026-05-04 23:34 | 44.56979 | 26.09342 | 322 ft | 13 kts | 264° |
| 2026-05-04 23:34 | 44.56970 | 26.09218 | 322 ft | 13 kts | 264° |
| 2026-05-04 23:34 | 44.56961 | 26.09098 | 322 ft | 12 kts | 264° |
| 2026-05-04 23:35 | 44.56952 | 26.08983 | 322 ft | 12 kts | 264° |
| 2026-05-04 23:35 | 44.56944 | 26.08872 | 322 ft | 11 kts | 264° |
| 2026-05-04 23:35 | 44.56936 | 26.08766 | 322 ft | 11 kts | 264° |
| 2026-05-04 23:35 | 44.56928 | 26.08665 | 322 ft | 10 kts | 264° |
| 2026-05-04 23:36 | 44.56935 | 26.08571 | 322 ft | 10 kts | 309° |
| 2026-05-04 23:36 | 44.57008 | 26.08536 | 322 ft | 15 kts | 354° |
| 2026-05-04 23:36 | 44.57118 | 26.08521 | 322 ft | 16 kts | 353° |
| 2026-05-04 23:36 | 44.57225 | 26.08504 | 322 ft | 15 kts | 353° |
| 2026-05-04 23:37 | 44.57324 | 26.08490 | 322 ft | 14 kts | 354° |
| 2026-05-04 23:37 | 44.57417 | 26.08477 | 322 ft | 13 kts | 354° |
| 2026-05-04 23:37 | 44.57505 | 26.08464 | 322 ft | 13 kts | 354° |
| 2026-05-04 23:37 | 44.57591 | 26.08451 | 322 ft | 12 kts | 354° |
| 2026-05-04 23:38 | 44.57665 | 26.08475 | 322 ft | 12 kts | 65° |
| 2026-05-04 23:38 | 44.57669 | 26.08501 | 322 ft | 0 kts | 84° |
| 2026-05-04 23:38 | 44.57678 | 26.08617 | 322 ft | 33 kts | 83° |
| 2026-05-04 23:38 | 44.57725 | 26.09246 | 322 ft | 95 kts | 84° |
| 2026-05-04 23:39 | 44.57816 | 26.10441 | 323 ft | 149 kts | 84° |
| 2026-05-04 23:39 | 44.57933 | 26.12037 | 635 ft | 170 kts | 84° |
| 2026-05-04 23:39 | 44.58043 | 26.13670 | 1420 ft | 168 kts | 84° |
| 2026-05-04 23:39 | 44.58152 | 26.15333 | 2050 ft | 174 kts | 84° |
| 2026-05-04 23:40 | 44.58268 | 26.17033 | 2515 ft | 178 kts | 83° |
| 2026-05-04 23:40 | 44.58408 | 26.18728 | 3100 ft | 173 kts | 81° |
| 2026-05-04 23:40 | 44.58685 | 26.20386 | 3513 ft | 179 kts | 62° |
| 2026-05-04 23:40 | 44.59651 | 26.21535 | 3723 ft | 195 kts | 18° |
| 2026-05-04 23:41 | 44.61056 | 26.21703 | 3957 ft | 214 kts | 357° |
| 2026-05-04 23:41 | 44.62587 | 26.21391 | 4291 ft | 230 kts | 350° |
| 2026-05-04 23:41 | 44.64203 | 26.20873 | 4625 ft | 247 kts | 347° |
| 2026-05-04 23:41 | 44.65910 | 26.20263 | 5073 ft | 258 kts | 347° |
| 2026-05-04 23:42 | 44.67662 | 26.19659 | 5721 ft | 260 kts | 348° |
| 2026-05-04 23:42 | 44.69429 | 26.19063 | 6453 ft | 261 kts | 348° |
| 2026-05-04 23:42 | 44.71191 | 26.18478 | 7196 ft | 261 kts | 349° |
| 2026-05-04 23:42 | 44.72960 | 26.17897 | 7936 ft | 261 kts | 349° |
| 2026-05-04 23:43 | 44.74732 | 26.17320 | 8652 ft | 263 kts | 349° |
| 2026-05-04 23:43 | 44.76442 | 26.16360 | 9368 ft | 270 kts | 331° |
| 2026-05-04 23:43 | 44.77851 | 26.14541 | 10020 ft | 283 kts | 313° |
| 2026-05-04 23:43 | 44.78958 | 26.12196 | 10630 ft | 292 kts | 306° |
| 2026-05-04 23:44 | 44.80018 | 26.09662 | 10980 ft | 309 kts | 305° |
| 2026-05-04 23:44 | 44.81112 | 26.06950 | 11247 ft | 328 kts | 304° |
| 2026-05-04 23:44 | 44.82259 | 26.04087 | 11560 ft | 343 kts | 304° |
| 2026-05-04 23:44 | 44.83489 | 26.01168 | 12095 ft | 349 kts | 307° |
| 2026-05-04 23:45 | 44.84778 | 25.98303 | 12709 ft | 353 kts | 307° |
| 2026-05-04 23:45 | 44.86029 | 25.95246 | 13372 ft | 359 kts | 301° |
| 2026-05-04 23:45 | 44.87044 | 25.91995 | 14057 ft | 365 kts | 294° |
| 2026-05-04 23:45 | 44.87854 | 25.88577 | 14739 ft | 369 kts | 291° |
| 2026-05-04 23:46 | 44.88566 | 25.85067 | 15412 ft | 374 kts | 289° |
| 2026-05-04 23:46 | 44.89265 | 25.81520 | 16045 ft | 378 kts | 289° |
| 2026-05-04 23:46 | 44.89987 | 25.77941 | 16684 ft | 381 kts | 290° |
| 2026-05-04 23:46 | 44.90745 | 25.74347 | 17303 ft | 384 kts | 291° |
| 2026-05-04 23:47 | 44.91524 | 25.70721 | 17911 ft | 388 kts | 290° |
| 2026-05-04 23:47 | 44.92296 | 25.67059 | 18517 ft | 390 kts | 290° |
| 2026-05-04 23:47 | 44.93062 | 25.63375 | 19141 ft | 392 kts | 290° |
| 2026-05-04 23:47 | 44.93827 | 25.59668 | 19759 ft | 394 kts | 289° |
| 2026-05-04 23:48 | 44.94593 | 25.55945 | 20340 ft | 397 kts | 289° |
| 2026-05-04 23:48 | 44.95353 | 25.52240 | 20907 ft | 399 kts | 289° |
| 2026-05-04 23:48 | 44.96124 | 25.48470 | 21459 ft | 401 kts | 289° |
| 2026-05-04 23:48 | 44.96900 | 25.44680 | 22003 ft | 403 kts | 289° |
| 2026-05-04 23:49 | 44.97679 | 25.40869 | 22530 ft | 405 kts | 289° |
| 2026-05-04 23:49 | 44.98464 | 25.37036 | 23037 ft | 407 kts | 289° |
| 2026-05-04 23:49 | 44.99254 | 25.33179 | 23522 ft | 410 kts | 289° |
| 2026-05-04 23:49 | 45.00158 | 25.29367 | 24009 ft | 410 kts | 293° |
| 2026-05-04 23:50 | 45.01196 | 25.25603 | 24479 ft | 412 kts | 293° |
| 2026-05-04 23:50 | 45.02225 | 25.21817 | 24926 ft | 414 kts | 295° |
| 2026-05-04 23:50 | 45.03463 | 25.18144 | 25361 ft | 415 kts | 300° |
| 2026-05-04 23:50 | 45.04944 | 25.14641 | 25779 ft | 416 kts | 304° |
| 2026-05-04 23:51 | 45.06541 | 25.11216 | 26184 ft | 418 kts | 305° |
| 2026-05-04 23:51 | 45.08176 | 25.07804 | 26583 ft | 420 kts | 305° |
| 2026-05-04 23:51 | 45.09815 | 25.04370 | 26956 ft | 422 kts | 305° |
| 2026-05-04 23:51 | 45.11461 | 25.00910 | 27294 ft | 425 kts | 304° |
| 2026-05-04 23:52 | 45.13111 | 24.97429 | 27669 ft | 427 kts | 304° |
| 2026-05-04 23:52 | 45.14769 | 24.93922 | 28023 ft | 429 kts | 304° |
| 2026-05-04 23:52 | 45.16428 | 24.90405 | 28371 ft | 431 kts | 304° |
| 2026-05-04 23:52 | 45.18097 | 24.86862 | 28702 ft | 433 kts | 304° |
| 2026-05-04 23:53 | 45.19769 | 24.83308 | 29024 ft | 435 kts | 304° |
| 2026-05-04 23:53 | 45.21447 | 24.79736 | 29333 ft | 437 kts | 304° |
| 2026-05-04 23:53 | 45.23150 | 24.76151 | 29601 ft | 439 kts | 304° |
| 2026-05-04 23:53 | 45.24876 | 24.72558 | 29901 ft | 441 kts | 304° |
| 2026-05-04 23:54 | 45.26597 | 24.68952 | 30235 ft | 441 kts | 304° |
| 2026-05-04 23:54 | 45.28308 | 24.65345 | 30634 ft | 440 kts | 304° |
| 2026-05-04 23:54 | 45.30013 | 24.61735 | 30990 ft | 440 kts | 304° |
| 2026-05-04 23:54 | 45.31709 | 24.58134 | 31377 ft | 439 kts | 304° |
| 2026-05-04 23:55 | 45.33404 | 24.54528 | 31704 ft | 439 kts | 304° |
| 2026-05-04 23:55 | 45.35093 | 24.50924 | 32074 ft | 438 kts | 304° |
| 2026-05-04 23:55 | 45.38455 | 24.43734 | 32770 ft | 436 kts | 305° |
| 2026-05-04 23:56 | 45.40132 | 24.40140 | 33067 ft | 436 kts | 305° |
| 2026-05-04 23:56 | 45.41807 | 24.36544 | 33421 ft | 435 kts | 305° |
| 2026-05-04 23:56 | 45.43475 | 24.32960 | 33736 ft | 434 kts | 305° |
| 2026-05-04 23:56 | 45.45140 | 24.29376 | 34044 ft | 434 kts | 305° |
| 2026-05-04 23:57 | 45.46803 | 24.25793 | 34332 ft | 434 kts | 306° |
| 2026-05-04 23:57 | 45.48465 | 24.22208 | 34635 ft | 433 kts | 305° |
| 2026-05-04 23:57 | 45.50124 | 24.18623 | 34888 ft | 433 kts | 305° |
| 2026-05-04 23:57 | 45.51781 | 24.15037 | 35172 ft | 433 kts | 305° |
| 2026-05-04 23:58 | 45.53413 | 24.11502 | 35451 ft | 433 kts | 305° |
| 2026-05-04 23:58 | 45.55066 | 24.07918 | 35705 ft | 433 kts | 305° |
| 2026-05-04 23:58 | 45.56716 | 24.04335 | 35981 ft | 432 kts | 305° |
| 2026-05-04 23:58 | 45.58370 | 24.00738 | 36100 ft | 435 kts | 305° |
| 2026-05-04 23:59 | 45.60030 | 23.97124 | 36111 ft | 436 kts | 305° |
| 2026-05-04 23:59 | 45.63344 | 23.89896 | 36111 ft | 433 kts | 305° |
| 2026-05-05 00:00 | 45.66077 | 23.83919 | 36109 ft | 431 kts | 305° |
| 2026-05-05 00:00 | 45.69360 | 23.76726 | 36108 ft | 432 kts | 305° |
| 2026-05-05 00:01 | 45.72638 | 23.69523 | 36107 ft | 432 kts | 305° |
| 2026-05-05 00:01 | 45.75913 | 23.62310 | 36107 ft | 432 kts | 305° |
| 2026-05-05 00:02 | 45.79183 | 23.55089 | 36109 ft | 432 kts | 305° |
| 2026-05-05 00:02 | 45.82447 | 23.47861 | 36116 ft | 432 kts | 305° |
| 2026-05-05 00:03 | 45.85708 | 23.40622 | 36117 ft | 432 kts | 305° |
| 2026-05-05 00:03 | 45.88961 | 23.33383 | 36117 ft | 431 kts | 304° |
| 2026-05-05 00:04 | 45.92206 | 23.26144 | 36117 ft | 431 kts | 304° |
| 2026-05-05 00:04 | 45.95447 | 23.18892 | 36117 ft | 431 kts | 304° |
| 2026-05-05 00:05 | 45.98682 | 23.11637 | 36116 ft | 431 kts | 304° |
| 2026-05-05 00:05 | 46.01909 | 23.04380 | 36116 ft | 431 kts | 304° |
| 2026-05-05 00:06 | 46.05137 | 22.97104 | 36116 ft | 431 kts | 304° |
| 2026-05-05 00:06 | 46.08357 | 22.89825 | 36103 ft | 431 kts | 304° |
| 2026-05-05 00:07 | 46.11564 | 22.82559 | 36093 ft | 430 kts | 304° |
| 2026-05-05 00:07 | 46.14768 | 22.75278 | 36090 ft | 430 kts | 304° |
| 2026-05-05 00:08 | 46.17967 | 22.67991 | 36089 ft | 430 kts | 304° |
| 2026-05-05 00:08 | 46.21162 | 22.60694 | 36088 ft | 430 kts | 304° |
| 2026-05-05 00:09 | 46.24349 | 22.53396 | 36087 ft | 430 kts | 304° |
| 2026-05-05 00:09 | 46.27534 | 22.46083 | 36086 ft | 430 kts | 304° |
| 2026-05-05 00:10 | 46.30688 | 22.38822 | 36086 ft | 429 kts | 304° |
| 2026-05-05 00:10 | 46.33857 | 22.31507 | 36085 ft | 429 kts | 304° |
| 2026-05-05 00:11 | 46.37023 | 22.24181 | 36085 ft | 429 kts | 304° |
| 2026-05-05 00:11 | 46.40184 | 22.16846 | 36085 ft | 429 kts | 304° |
| 2026-05-05 00:12 | 46.43338 | 22.09509 | 36084 ft | 429 kts | 304° |
| 2026-05-05 00:12 | 46.46488 | 22.02161 | 36084 ft | 429 kts | 304° |
| 2026-05-05 00:13 | 46.49632 | 21.94809 | 36084 ft | 428 kts | 304° |
| 2026-05-05 00:13 | 46.52781 | 21.87477 | 36082 ft | 428 kts | 304° |
| 2026-05-05 00:14 | 46.55929 | 21.80140 | 36082 ft | 428 kts | 304° |
| 2026-05-05 00:14 | 46.59044 | 21.72774 | 36082 ft | 428 kts | 303° |
| 2026-05-05 00:15 | 46.62145 | 21.65404 | 36081 ft | 427 kts | 303° |
| 2026-05-05 00:15 | 46.65239 | 21.58036 | 36082 ft | 427 kts | 303° |
| 2026-05-05 00:16 | 46.68257 | 21.50580 | 36081 ft | 428 kts | 298° |
| 2026-05-05 00:16 | 46.70517 | 21.42542 | 36082 ft | 430 kts | 291° |
| 2026-05-05 00:17 | 46.72496 | 21.34289 | 36194 ft | 434 kts | 291° |
| 2026-05-05 00:17 | 46.73490 | 21.30129 | 36414 ft | 434 kts | 291° |
| 2026-05-05 00:17 | 46.74479 | 21.25984 | 36718 ft | 433 kts | 291° |
| 2026-05-05 00:17 | 46.75453 | 21.21899 | 36968 ft | 432 kts | 291° |
| 2026-05-05 00:18 | 46.76439 | 21.17759 | 37204 ft | 432 kts | 291° |
| 2026-05-05 00:18 | 46.77420 | 21.13631 | 37446 ft | 431 kts | 290° |
| 2026-05-05 00:18 | 46.78400 | 21.09501 | 37697 ft | 430 kts | 290° |
| 2026-05-05 00:18 | 46.79378 | 21.05372 | 37930 ft | 430 kts | 290° |
| 2026-05-05 00:19 | 46.80362 | 21.01254 | 38050 ft | 431 kts | 291° |
| 2026-05-05 00:19 | 46.82390 | 20.93012 | 38063 ft | 431 kts | 291° |
| 2026-05-05 00:20 | 46.84378 | 20.84780 | 38061 ft | 429 kts | 290° |
| 2026-05-05 00:20 | 46.86358 | 20.76490 | 38060 ft | 429 kts | 290° |
| 2026-05-05 00:21 | 46.88299 | 20.68300 | 38059 ft | 429 kts | 290° |
| 2026-05-05 00:21 | 46.90242 | 20.60057 | 38057 ft | 429 kts | 290° |
| 2026-05-05 00:22 | 46.92179 | 20.51805 | 38056 ft | 429 kts | 290° |
| 2026-05-05 00:22 | 46.94107 | 20.43556 | 38054 ft | 429 kts | 290° |
| 2026-05-05 00:23 | 46.96030 | 20.35300 | 38054 ft | 428 kts | 290° |
| 2026-05-05 00:23 | 46.97945 | 20.27043 | 38054 ft | 428 kts | 290° |
| 2026-05-05 00:24 | 46.99853 | 20.18783 | 38053 ft | 428 kts | 290° |
| 2026-05-05 00:24 | 47.01757 | 20.10512 | 38053 ft | 428 kts | 289° |
| 2026-05-05 00:25 | 47.03651 | 20.02250 | 38053 ft | 428 kts | 289° |
| 2026-05-05 00:25 | 47.05541 | 19.93977 | 38053 ft | 427 kts | 289° |
| 2026-05-05 00:26 | 47.07417 | 19.85733 | 38053 ft | 426 kts | 289° |
| 2026-05-05 00:26 | 47.09288 | 19.77473 | 38053 ft | 426 kts | 289° |
| 2026-05-05 00:27 | 47.11153 | 19.69215 | 38053 ft | 426 kts | 289° |
| 2026-05-05 00:27 | 47.13012 | 19.60946 | 38054 ft | 426 kts | 289° |
| 2026-05-05 00:28 | 47.14865 | 19.52676 | 38053 ft | 426 kts | 289° |
| 2026-05-05 00:28 | 47.16711 | 19.44400 | 38052 ft | 426 kts | 289° |
| 2026-05-05 00:29 | 47.18554 | 19.36107 | 38053 ft | 427 kts | 289° |
| 2026-05-05 00:29 | 47.20392 | 19.27808 | 38053 ft | 427 kts | 288° |
| 2026-05-05 00:30 | 47.22211 | 19.19559 | 38051 ft | 427 kts | 288° |
| 2026-05-05 00:30 | 47.24034 | 19.11255 | 38051 ft | 427 kts | 288° |
| 2026-05-05 00:31 | 47.25854 | 19.02939 | 38050 ft | 427 kts | 288° |
| 2026-05-05 00:31 | 47.27664 | 18.94629 | 38049 ft | 426 kts | 288° |
| 2026-05-05 00:32 | 47.29469 | 18.86312 | 38047 ft | 426 kts | 288° |
| 2026-05-05 00:32 | 47.31268 | 18.77989 | 38045 ft | 426 kts | 288° |
| 2026-05-05 00:33 | 47.33062 | 18.69658 | 38042 ft | 426 kts | 288° |
| 2026-05-05 00:33 | 47.34847 | 18.61330 | 38038 ft | 426 kts | 288° |
| 2026-05-05 00:34 | 47.36625 | 18.53003 | 38033 ft | 426 kts | 288° |
| 2026-05-05 00:34 | 47.38399 | 18.44663 | 38022 ft | 426 kts | 288° |
| 2026-05-05 00:35 | 47.40163 | 18.36333 | 38010 ft | 425 kts | 287° |
| 2026-05-05 00:35 | 47.41925 | 18.27984 | 38002 ft | 426 kts | 287° |
| 2026-05-05 00:36 | 47.43677 | 18.19641 | 37995 ft | 426 kts | 287° |
| 2026-05-05 00:36 | 47.45414 | 18.11340 | 37992 ft | 426 kts | 287° |
| 2026-05-05 00:37 | 47.47155 | 18.02981 | 37990 ft | 426 kts | 287° |
| 2026-05-05 00:37 | 47.48901 | 17.94567 | 37989 ft | 425 kts | 287° |
| 2026-05-05 00:38 | 47.50619 | 17.86254 | 37990 ft | 425 kts | 287° |
| 2026-05-05 00:38 | 47.52342 | 17.77879 | 37989 ft | 425 kts | 287° |
| 2026-05-05 00:39 | 47.54057 | 17.69506 | 37987 ft | 425 kts | 287° |
| 2026-05-05 00:39 | 47.55769 | 17.61118 | 37985 ft | 426 kts | 287° |
| 2026-05-05 00:40 | 47.57473 | 17.52732 | 37981 ft | 425 kts | 287° |
| 2026-05-05 00:40 | 47.59191 | 17.44362 | 37978 ft | 425 kts | 287° |
| 2026-05-05 00:41 | 47.60905 | 17.35984 | 37977 ft | 425 kts | 286° |
| 2026-05-05 00:41 | 47.62580 | 17.27586 | 37976 ft | 425 kts | 286° |
| 2026-05-05 00:42 | 47.64241 | 17.19184 | 37970 ft | 425 kts | 286° |
| 2026-05-05 00:42 | 47.65901 | 17.10766 | 37958 ft | 425 kts | 286° |
| 2026-05-05 00:43 | 47.67561 | 17.02368 | 37950 ft | 424 kts | 287° |
| 2026-05-05 00:43 | 47.69631 | 16.94162 | 37947 ft | 425 kts | 292° |
| 2026-05-05 00:44 | 47.71919 | 16.86064 | 37942 ft | 425 kts | 291° |
| 2026-05-05 00:44 | 47.74172 | 16.77944 | 37938 ft | 425 kts | 291° |
| 2026-05-05 00:45 | 47.76398 | 16.69820 | 37928 ft | 425 kts | 291° |
| 2026-05-05 00:45 | 47.78618 | 16.61663 | 37924 ft | 425 kts | 291° |
| 2026-05-05 00:46 | 47.80828 | 16.53519 | 37919 ft | 425 kts | 291° |
| 2026-05-05 00:46 | 47.83103 | 16.45398 | 37916 ft | 425 kts | 291° |
| 2026-05-05 00:47 | 47.85346 | 16.37252 | 37915 ft | 426 kts | 291° |
| 2026-05-05 00:47 | 47.87569 | 16.29092 | 37915 ft | 425 kts | 290° |
| 2026-05-05 00:48 | 47.89779 | 16.20922 | 37916 ft | 425 kts | 290° |
| 2026-05-05 00:48 | 47.91607 | 16.14131 | 37917 ft | 425 kts | 290° |
| 2026-05-05 00:49 | 47.93804 | 16.05940 | 37916 ft | 425 kts | 290° |
| 2026-05-05 00:49 | 47.95994 | 15.97745 | 37918 ft | 425 kts | 290° |
| 2026-05-05 00:50 | 47.98177 | 15.89546 | 37919 ft | 425 kts | 290° |
| 2026-05-05 00:50 | 48.00352 | 15.81344 | 37920 ft | 425 kts | 290° |
| 2026-05-05 00:51 | 48.02524 | 15.73129 | 37921 ft | 425 kts | 290° |
| 2026-05-05 00:51 | 48.04675 | 15.64963 | 37922 ft | 425 kts | 290° |
| 2026-05-05 00:52 | 48.06832 | 15.56743 | 37923 ft | 424 kts | 290° |
| 2026-05-05 00:52 | 48.08981 | 15.48525 | 37924 ft | 424 kts | 290° |
| 2026-05-05 00:53 | 48.11125 | 15.40298 | 37924 ft | 424 kts | 289° |
| 2026-05-05 00:53 | 48.13259 | 15.32081 | 37935 ft | 423 kts | 289° |
| 2026-05-05 00:54 | 48.15387 | 15.23855 | 37941 ft | 424 kts | 289° |
| 2026-05-05 00:54 | 48.17510 | 15.15621 | 37938 ft | 424 kts | 289° |
| 2026-05-05 00:55 | 48.19629 | 15.07374 | 37934 ft | 423 kts | 289° |
| 2026-05-05 00:55 | 48.21739 | 14.99130 | 37931 ft | 424 kts | 289° |
| 2026-05-05 00:56 | 48.23845 | 14.90869 | 37920 ft | 424 kts | 289° |
| 2026-05-05 00:56 | 48.25943 | 14.82612 | 37914 ft | 423 kts | 288° |
| 2026-05-05 00:57 | 48.28034 | 14.74353 | 37912 ft | 424 kts | 288° |
| 2026-05-05 00:57 | 48.30119 | 14.66090 | 37914 ft | 423 kts | 288° |
| 2026-05-05 00:58 | 48.32198 | 14.57817 | 37912 ft | 423 kts | 288° |
| 2026-05-05 00:58 | 48.34273 | 14.49531 | 37910 ft | 423 kts | 288° |
| 2026-05-05 00:59 | 48.36337 | 14.41258 | 37908 ft | 423 kts | 288° |
| 2026-05-05 00:59 | 48.38398 | 14.32966 | 37908 ft | 423 kts | 288° |
| 2026-05-05 01:00 | 48.40452 | 14.24674 | 37907 ft | 423 kts | 288° |
| 2026-05-05 01:00 | 48.42499 | 14.16375 | 37907 ft | 423 kts | 288° |
| 2026-05-05 01:01 | 48.44528 | 14.08124 | 37908 ft | 423 kts | 288° |
| 2026-05-05 01:01 | 48.46563 | 13.99815 | 37907 ft | 423 kts | 288° |
| 2026-05-05 01:02 | 48.48629 | 13.91509 | 37908 ft | 423 kts | 288° |
| 2026-05-05 01:02 | 48.50662 | 13.83196 | 37909 ft | 423 kts | 287° |
| 2026-05-05 01:03 | 48.52668 | 13.74856 | 37910 ft | 423 kts | 287° |
| 2026-05-05 01:03 | 48.54666 | 13.66505 | 37911 ft | 424 kts | 287° |
| 2026-05-05 01:04 | 48.56663 | 13.58137 | 37912 ft | 424 kts | 287° |
| 2026-05-05 01:04 | 48.59944 | 13.45742 | 37913 ft | 425 kts | 293° |
| 2026-05-05 01:05 | 48.62601 | 13.37731 | 37913 ft | 426 kts | 294° |
| 2026-05-05 01:05 | 48.65238 | 13.29721 | 37912 ft | 426 kts | 293° |
| 2026-05-05 01:06 | 48.67853 | 13.21682 | 37914 ft | 426 kts | 293° |
| 2026-05-05 01:06 | 48.70453 | 13.13630 | 37914 ft | 426 kts | 293° |
| 2026-05-05 01:07 | 48.73042 | 13.05576 | 37914 ft | 426 kts | 293° |
| 2026-05-05 01:07 | 48.75690 | 12.97530 | 37916 ft | 426 kts | 293° |
| 2026-05-05 01:08 | 48.78324 | 12.89474 | 37921 ft | 426 kts | 293° |
| 2026-05-05 01:08 | 48.80936 | 12.81389 | 37921 ft | 427 kts | 293° |
| 2026-05-05 01:09 | 48.83535 | 12.73287 | 37921 ft | 427 kts | 293° |
| 2026-05-05 01:09 | 48.86126 | 12.65175 | 37920 ft | 427 kts | 293° |
| 2026-05-05 01:10 | 48.88711 | 12.57049 | 37920 ft | 427 kts | 292° |
| 2026-05-05 01:10 | 48.91289 | 12.48915 | 37920 ft | 427 kts | 292° |
| 2026-05-05 01:11 | 48.93841 | 12.40837 | 37918 ft | 427 kts | 292° |
| 2026-05-05 01:11 | 48.96405 | 12.32695 | 37916 ft | 427 kts | 292° |
| 2026-05-05 01:12 | 48.98964 | 12.24542 | 37916 ft | 427 kts | 292° |
| 2026-05-05 01:12 | 49.01515 | 12.16387 | 37913 ft | 427 kts | 292° |
| 2026-05-05 01:13 | 49.04062 | 12.08218 | 37910 ft | 427 kts | 292° |
| 2026-05-05 01:13 | 49.06605 | 12.00034 | 37909 ft | 427 kts | 292° |
| 2026-05-05 01:14 | 49.09142 | 11.91843 | 37910 ft | 427 kts | 292° |
| 2026-05-05 01:14 | 49.11676 | 11.83635 | 37908 ft | 428 kts | 291° |
| 2026-05-05 01:15 | 49.14204 | 11.75417 | 37902 ft | 427 kts | 291° |
| 2026-05-05 01:15 | 49.16727 | 11.67189 | 37901 ft | 428 kts | 291° |
| 2026-05-05 01:16 | 49.19243 | 11.58956 | 37901 ft | 427 kts | 291° |
| 2026-05-05 01:16 | 49.21753 | 11.50714 | 37902 ft | 427 kts | 291° |
| 2026-05-05 01:17 | 49.24256 | 11.42469 | 37905 ft | 427 kts | 291° |
| 2026-05-05 01:17 | 49.26789 | 11.34231 | 37912 ft | 428 kts | 291° |
| 2026-05-05 01:18 | 49.29292 | 11.25970 | 37912 ft | 427 kts | 291° |
| 2026-05-05 01:18 | 49.31762 | 11.17702 | 37912 ft | 427 kts | 291° |
| 2026-05-05 01:19 | 49.34224 | 11.09424 | 37914 ft | 427 kts | 291° |
| 2026-05-05 01:19 | 49.36684 | 11.01136 | 37911 ft | 427 kts | 291° |
| 2026-05-05 01:20 | 49.39144 | 10.92846 | 37912 ft | 426 kts | 291° |
| 2026-05-05 01:20 | 49.41782 | 10.84671 | 37915 ft | 428 kts | 293° |
| 2026-05-05 01:21 | 49.44441 | 10.76508 | 37918 ft | 427 kts | 292° |
| 2026-05-05 01:21 | 49.47058 | 10.68383 | 37921 ft | 427 kts | 292° |
| 2026-05-05 01:22 | 49.49681 | 10.60184 | 37922 ft | 428 kts | 292° |
| 2026-05-05 01:22 | 49.52295 | 10.51979 | 37924 ft | 427 kts | 292° |
| 2026-05-05 01:23 | 49.54928 | 10.43788 | 37922 ft | 427 kts | 293° |
| 2026-05-05 01:23 | 49.57595 | 10.35604 | 37923 ft | 427 kts | 292° |
| 2026-05-05 01:24 | 49.60226 | 10.27404 | 37923 ft | 427 kts | 292° |
| 2026-05-05 01:24 | 49.62839 | 10.19190 | 37925 ft | 427 kts | 292° |
| 2026-05-05 01:25 | 49.65443 | 10.10960 | 37926 ft | 427 kts | 292° |
| 2026-05-05 01:25 | 49.68038 | 10.02726 | 37928 ft | 427 kts | 292° |
| 2026-05-05 01:26 | 49.70628 | 9.94476 | 37930 ft | 427 kts | 292° |
| 2026-05-05 01:26 | 49.73211 | 9.86221 | 37935 ft | 427 kts | 292° |
| 2026-05-05 01:27 | 49.75772 | 9.78008 | 37935 ft | 427 kts | 291° |
| 2026-05-05 01:27 | 49.78344 | 9.69732 | 37934 ft | 427 kts | 291° |
| 2026-05-05 01:28 | 49.80912 | 9.61440 | 37935 ft | 427 kts | 291° |
| 2026-05-05 01:28 | 49.83469 | 9.53156 | 37935 ft | 427 kts | 291° |
| 2026-05-05 01:29 | 49.86025 | 9.44847 | 37935 ft | 427 kts | 291° |
| 2026-05-05 01:29 | 49.88576 | 9.36527 | 37935 ft | 427 kts | 291° |
| 2026-05-05 01:30 | 49.91137 | 9.28145 | 37934 ft | 428 kts | 291° |
| 2026-05-05 01:30 | 49.93703 | 9.19867 | 37937 ft | 429 kts | 291° |
| 2026-05-05 01:31 | 49.96250 | 9.11500 | 37938 ft | 429 kts | 291° |
| 2026-05-05 01:31 | 49.98774 | 9.03102 | 37936 ft | 429 kts | 291° |
| 2026-05-05 01:32 | 50.01291 | 8.94691 | 37936 ft | 429 kts | 291° |
| 2026-05-05 01:32 | 50.03807 | 8.86270 | 37936 ft | 430 kts | 291° |
| 2026-05-05 01:33 | 50.06276 | 8.77806 | 37936 ft | 428 kts | 288° |
| 2026-05-05 01:33 | 50.08341 | 8.69117 | 37936 ft | 428 kts | 285° |
| 2026-05-05 01:34 | 50.10331 | 8.60338 | 37937 ft | 433 kts | 286° |
| 2026-05-05 01:34 | 50.12376 | 8.51464 | 37944 ft | 438 kts | 286° |
| 2026-05-05 01:35 | 50.14428 | 8.42563 | 37948 ft | 433 kts | 285° |
| 2026-05-05 01:35 | 50.16450 | 8.33777 | 37956 ft | 431 kts | 286° |
| 2026-05-05 01:36 | 50.18528 | 8.24928 | 37964 ft | 435 kts | 287° |
| 2026-05-05 01:36 | 50.20614 | 8.16122 | 37964 ft | 436 kts | 286° |
| 2026-05-05 01:37 | 50.22685 | 8.07210 | 37966 ft | 438 kts | 286° |
| 2026-05-05 01:37 | 50.24740 | 7.98298 | 37956 ft | 434 kts | 285° |
| 2026-05-05 01:38 | 50.26765 | 7.89440 | 37950 ft | 432 kts | 285° |
| 2026-05-05 01:38 | 50.28783 | 7.80587 | 37949 ft | 433 kts | 285° |
| 2026-05-05 01:39 | 50.30792 | 7.71688 | 37945 ft | 436 kts | 285° |
| 2026-05-05 01:39 | 50.32471 | 7.64254 | 37943 ft | 435 kts | 285° |
| 2026-05-05 01:40 | 50.34472 | 7.55356 | 37942 ft | 432 kts | 285° |
| 2026-05-05 01:40 | 50.36450 | 7.46510 | 37942 ft | 431 kts | 285° |
| 2026-05-05 01:41 | 50.38441 | 7.37582 | 37939 ft | 435 kts | 285° |
| 2026-05-05 01:41 | 50.40437 | 7.28621 | 37935 ft | 436 kts | 286° |
| 2026-05-05 01:42 | 50.42460 | 7.19691 | 37934 ft | 433 kts | 285° |
| 2026-05-05 01:42 | 50.44417 | 7.10773 | 37932 ft | 432 kts | 285° |
| 2026-05-05 01:43 | 50.46362 | 7.01809 | 37933 ft | 434 kts | 285° |
| 2026-05-05 01:43 | 50.48301 | 6.92816 | 37929 ft | 436 kts | 285° |
| 2026-05-05 01:44 | 50.50239 | 6.83843 | 37932 ft | 433 kts | 285° |
| 2026-05-05 01:44 | 50.51994 | 6.74835 | 37933 ft | 431 kts | 282° |
| 2026-05-05 01:45 | 50.53540 | 6.65720 | 37920 ft | 431 kts | 281° |
| 2026-05-05 01:45 | 50.55086 | 6.56666 | 37913 ft | 428 kts | 281° |
| 2026-05-05 01:46 | 50.56641 | 6.47608 | 37910 ft | 432 kts | 281° |
| 2026-05-05 01:46 | 50.58210 | 6.38434 | 37909 ft | 436 kts | 281° |
| 2026-05-05 01:47 | 50.59785 | 6.29220 | 37911 ft | 434 kts | 282° |
| 2026-05-05 01:47 | 50.61406 | 6.20160 | 37908 ft | 429 kts | 282° |
| 2026-05-05 01:48 | 50.62979 | 6.11110 | 37905 ft | 432 kts | 282° |
| 2026-05-05 01:48 | 50.64541 | 6.01991 | 37910 ft | 431 kts | 282° |
| 2026-05-05 01:49 | 50.66089 | 5.92892 | 37905 ft | 429 kts | 281° |
| 2026-05-05 01:49 | 50.67621 | 5.83801 | 37906 ft | 429 kts | 281° |
| 2026-05-05 01:50 | 50.69146 | 5.74706 | 37906 ft | 429 kts | 281° |
| 2026-05-05 01:50 | 50.70665 | 5.65595 | 37907 ft | 430 kts | 281° |
| 2026-05-05 01:51 | 50.72178 | 5.56474 | 37905 ft | 430 kts | 281° |
| 2026-05-05 01:51 | 50.73729 | 5.47364 | 37906 ft | 430 kts | 282° |
| 2026-05-05 01:52 | 50.75233 | 5.38233 | 37907 ft | 430 kts | 281° |
| 2026-05-05 01:52 | 50.76708 | 5.29094 | 37908 ft | 430 kts | 281° |
| 2026-05-05 01:53 | 50.78176 | 5.19939 | 37911 ft | 430 kts | 281° |
| 2026-05-05 01:53 | 50.79643 | 5.10768 | 37914 ft | 430 kts | 281° |
| 2026-05-05 01:54 | 50.81580 | 5.01792 | 37919 ft | 434 kts | 291° |
| 2026-05-05 01:54 | 50.84220 | 4.93192 | 37926 ft | 435 kts | 293° |
| 2026-05-05 01:55 | 50.86920 | 4.84618 | 37929 ft | 435 kts | 293° |
| 2026-05-05 01:55 | 50.89592 | 4.76081 | 37933 ft | 436 kts | 293° |
| 2026-05-05 01:56 | 50.92276 | 4.67474 | 37934 ft | 436 kts | 293° |
| 2026-05-05 01:56 | 50.94972 | 4.58801 | 37933 ft | 435 kts | 293° |
| 2026-05-05 01:57 | 50.97670 | 4.50285 | 37935 ft | 435 kts | 294° |
| 2026-05-05 01:57 | 51.00384 | 4.41685 | 37935 ft | 436 kts | 293° |
| 2026-05-05 01:58 | 51.03071 | 4.33056 | 37935 ft | 436 kts | 293° |
| 2026-05-05 01:58 | 51.05744 | 4.24413 | 37936 ft | 436 kts | 293° |
| 2026-05-05 01:59 | 51.07077 | 4.20089 | 37716 ft | 435 kts | 293° |
| 2026-05-05 01:59 | 51.08400 | 4.15786 | 37466 ft | 432 kts | 293° |
| 2026-05-05 01:59 | 51.09717 | 4.11516 | 37216 ft | 428 kts | 293° |
| 2026-05-05 01:59 | 51.11048 | 4.07291 | 36967 ft | 427 kts | 293° |
| 2026-05-05 02:00 | 51.12361 | 4.03043 | 36717 ft | 428 kts | 293° |
| 2026-05-05 02:00 | 51.13662 | 3.98782 | 36466 ft | 428 kts | 292° |
| 2026-05-05 02:00 | 51.14958 | 3.94511 | 36216 ft | 428 kts | 292° |
| 2026-05-05 02:00 | 51.16249 | 3.90234 | 35991 ft | 428 kts | 292° |
| 2026-05-05 02:01 | 51.18824 | 3.81687 | 35943 ft | 428 kts | 292° |
| 2026-05-05 02:01 | 51.21398 | 3.73124 | 35946 ft | 429 kts | 292° |
| 2026-05-05 02:02 | 51.23691 | 3.64284 | 35951 ft | 435 kts | 284° |
| 2026-05-05 02:02 | 51.25112 | 3.54825 | 35965 ft | 442 kts | 278° |
| 2026-05-05 02:03 | 51.26356 | 3.45148 | 35967 ft | 445 kts | 279° |
| 2026-05-05 02:03 | 51.27607 | 3.35491 | 35968 ft | 444 kts | 279° |
| 2026-05-05 02:04 | 51.28838 | 3.25833 | 35967 ft | 444 kts | 279° |
| 2026-05-05 02:04 | 51.30138 | 3.16171 | 35966 ft | 444 kts | 279° |
| 2026-05-05 02:05 | 51.31365 | 3.06493 | 35965 ft | 444 kts | 279° |
| 2026-05-05 02:05 | 51.32559 | 2.96869 | 35965 ft | 445 kts | 279° |
| 2026-05-05 02:06 | 51.33756 | 2.87160 | 35965 ft | 445 kts | 279° |
| 2026-05-05 02:06 | 51.34954 | 2.77444 | 35967 ft | 446 kts | 279° |
| 2026-05-05 02:07 | 51.36192 | 2.67722 | 35969 ft | 446 kts | 279° |
| 2026-05-05 02:07 | 51.37397 | 2.57989 | 35972 ft | 446 kts | 279° |
| 2026-05-05 02:08 | 51.38569 | 2.48243 | 35975 ft | 446 kts | 278° |
| 2026-05-05 02:08 | 51.39733 | 2.38483 | 35978 ft | 446 kts | 278° |
| 2026-05-05 02:09 | 51.40898 | 2.28718 | 35981 ft | 447 kts | 279° |
| 2026-05-05 02:09 | 51.42097 | 2.18952 | 35984 ft | 447 kts | 279° |
| 2026-05-05 02:10 | 51.43287 | 2.09164 | 35986 ft | 447 kts | 279° |
| 2026-05-05 02:10 | 51.44464 | 1.99382 | 35988 ft | 447 kts | 279° |
| 2026-05-05 02:11 | 51.45619 | 1.89569 | 35993 ft | 449 kts | 279° |
| 2026-05-05 02:11 | 51.46778 | 1.79742 | 35995 ft | 449 kts | 279° |
| 2026-05-05 02:12 | 51.48469 | 1.64986 | 36000 ft | 448 kts | 278° |
| 2026-05-05 02:13 | 51.49620 | 1.55150 | 36001 ft | 448 kts | 279° |
| 2026-05-05 02:13 | 51.50739 | 1.45387 | 36012 ft | 448 kts | 278° |
| 2026-05-05 02:14 | 51.51830 | 1.35532 | 36022 ft | 448 kts | 278° |
| 2026-05-05 02:14 | 51.52911 | 1.25673 | 36029 ft | 448 kts | 278° |
| 2026-05-05 02:15 | 51.53993 | 1.15804 | 36035 ft | 449 kts | 278° |
| 2026-05-05 02:15 | 51.55079 | 1.05920 | 36040 ft | 449 kts | 278° |
| 2026-05-05 02:16 | 51.56147 | 0.96031 | 36045 ft | 449 kts | 278° |
| 2026-05-05 02:16 | 51.57235 | 0.86134 | 36047 ft | 450 kts | 278° |
| 2026-05-05 02:17 | 51.58281 | 0.76228 | 36051 ft | 450 kts | 278° |
| 2026-05-05 02:17 | 51.59322 | 0.66302 | 36051 ft | 450 kts | 278° |
| 2026-05-05 02:18 | 51.60376 | 0.56363 | 36050 ft | 451 kts | 279° |
| 2026-05-05 02:18 | 51.61443 | 0.46435 | 36044 ft | 451 kts | 278° |
| 2026-05-05 02:19 | 51.62458 | 0.36481 | 36037 ft | 451 kts | 278° |
| 2026-05-05 02:19 | 51.63460 | 0.26523 | 36031 ft | 451 kts | 278° |
| 2026-05-05 02:20 | 51.65065 | 0.16809 | 36027 ft | 452 kts | 295° |
| 2026-05-05 02:20 | 51.68670 | 0.08579 | 36028 ft | 455 kts | 310° |
| 2026-05-05 02:21 | 51.73073 | 0.01161 | 36024 ft | 455 kts | 314° |
| 2026-05-05 02:21 | 51.77489 | -0.06106 | 36019 ft | 460 kts | 313° |
| 2026-05-05 02:22 | 51.81977 | -0.13548 | 36020 ft | 465 kts | 314° |
| 2026-05-05 02:22 | 51.86486 | -0.21053 | 36021 ft | 465 kts | 314° |
| 2026-05-05 02:23 | 51.91011 | -0.28515 | 36023 ft | 464 kts | 314° |
| 2026-05-05 02:23 | 51.95534 | -0.35988 | 36015 ft | 465 kts | 314° |
| 2026-05-05 02:23 | 51.97793 | -0.39753 | 35651 ft | 467 kts | 314° |
| 2026-05-05 02:24 | 52.00050 | -0.43525 | 35019 ft | 466 kts | 314° |
| 2026-05-05 02:24 | 52.02307 | -0.47304 | 34276 ft | 466 kts | 314° |
| 2026-05-05 02:24 | 52.04578 | -0.51051 | 33525 ft | 465 kts | 315° |
| 2026-05-05 02:24 | 52.06836 | -0.54820 | 32764 ft | 465 kts | 315° |
| 2026-05-05 02:25 | 52.09078 | -0.58595 | 31987 ft | 464 kts | 314° |
| 2026-05-05 02:25 | 52.11310 | -0.62375 | 31196 ft | 464 kts | 314° |
| 2026-05-05 02:25 | 52.13541 | -0.66162 | 30385 ft | 464 kts | 314° |
| 2026-05-05 02:25 | 52.15771 | -0.69956 | 29560 ft | 464 kts | 314° |
| 2026-05-05 02:26 | 52.18002 | -0.73755 | 28729 ft | 465 kts | 314° |
| 2026-05-05 02:26 | 52.20239 | -0.77569 | 27952 ft | 464 kts | 314° |
| 2026-05-05 02:26 | 52.22479 | -0.81320 | 27322 ft | 460 kts | 316° |
| 2026-05-05 02:26 | 52.24868 | -0.84767 | 26695 ft | 457 kts | 320° |
| 2026-05-05 02:27 | 52.27423 | -0.87823 | 26065 ft | 454 kts | 325° |
| 2026-05-05 02:27 | 52.30082 | -0.90578 | 25437 ft | 451 kts | 327° |
| 2026-05-05 02:27 | 52.32762 | -0.93203 | 24812 ft | 447 kts | 327° |
| 2026-05-05 02:27 | 52.35411 | -0.95829 | 24190 ft | 444 kts | 327° |
| 2026-05-05 02:28 | 52.38035 | -0.98449 | 23570 ft | 441 kts | 326° |
| 2026-05-05 02:28 | 52.40639 | -1.01060 | 22953 ft | 437 kts | 327° |
| 2026-05-05 02:28 | 52.43224 | -1.03655 | 22341 ft | 434 kts | 327° |
| 2026-05-05 02:28 | 52.45787 | -1.06228 | 21734 ft | 430 kts | 327° |
| 2026-05-05 02:29 | 52.48322 | -1.08778 | 21133 ft | 426 kts | 327° |
| 2026-05-05 02:29 | 52.50837 | -1.11302 | 20732 ft | 418 kts | 327° |
| 2026-05-05 02:29 | 52.53259 | -1.13736 | 20720 ft | 399 kts | 327° |
| 2026-05-05 02:29 | 52.54807 | -1.15295 | 20674 ft | 389 kts | 327° |
| 2026-05-05 02:30 | 52.57077 | -1.17583 | 20584 ft | 376 kts | 327° |
| 2026-05-05 02:30 | 52.59270 | -1.19781 | 20492 ft | 363 kts | 327° |
| 2026-05-05 02:30 | 52.61386 | -1.21918 | 20398 ft | 352 kts | 327° |
| 2026-05-05 02:30 | 52.63457 | -1.24015 | 20040 ft | 349 kts | 327° |
| 2026-05-05 02:31 | 52.65546 | -1.26135 | 19253 ft | 359 kts | 327° |
| 2026-05-05 02:31 | 52.67712 | -1.28331 | 18288 ft | 372 kts | 327° |
| 2026-05-05 02:31 | 52.69945 | -1.30601 | 17438 ft | 381 kts | 327° |
| 2026-05-05 02:31 | 52.72218 | -1.32916 | 16911 ft | 387 kts | 327° |
| 2026-05-05 02:32 | 52.74517 | -1.35261 | 16351 ft | 392 kts | 327° |
| 2026-05-05 02:32 | 52.76837 | -1.37633 | 15781 ft | 391 kts | 327° |
| 2026-05-05 02:32 | 52.79154 | -1.39978 | 15211 ft | 389 kts | 328° |
| 2026-05-05 02:32 | 52.81453 | -1.42290 | 14644 ft | 385 kts | 327° |
| 2026-05-05 02:33 | 52.83724 | -1.44602 | 14082 ft | 382 kts | 327° |
| 2026-05-05 02:33 | 52.85974 | -1.46908 | 13523 ft | 379 kts | 327° |
| 2026-05-05 02:33 | 52.88198 | -1.49195 | 12970 ft | 375 kts | 327° |
| 2026-05-05 02:33 | 52.90407 | -1.51473 | 12418 ft | 372 kts | 327° |
| 2026-05-05 02:34 | 52.92595 | -1.53733 | 11869 ft | 369 kts | 327° |
| 2026-05-05 02:34 | 52.94767 | -1.55981 | 11323 ft | 366 kts | 327° |
| 2026-05-05 02:34 | 52.96920 | -1.58209 | 10783 ft | 363 kts | 327° |
| 2026-05-05 02:34 | 52.99050 | -1.60416 | 10429 ft | 355 kts | 327° |
| 2026-05-05 02:35 | 53.01094 | -1.62534 | 10413 ft | 338 kts | 327° |
| 2026-05-05 02:35 | 53.03024 | -1.64532 | 10342 ft | 324 kts | 327° |
| 2026-05-05 02:35 | 53.04926 | -1.66498 | 10266 ft | 312 kts | 328° |
| 2026-05-05 02:35 | 53.06774 | -1.68163 | 10195 ft | 301 kts | 333° |
| 2026-05-05 02:36 | 53.08636 | -1.69612 | 10096 ft | 291 kts | 334° |
| 2026-05-05 02:36 | 53.10454 | -1.70966 | 10002 ft | 281 kts | 334° |
| 2026-05-05 02:36 | 53.12227 | -1.72290 | 9739 ft | 279 kts | 334° |
| 2026-05-05 02:36 | 53.13995 | -1.73615 | 9431 ft | 278 kts | 334° |
| 2026-05-05 02:37 | 53.15752 | -1.74936 | 9123 ft | 277 kts | 334° |
| 2026-05-05 02:37 | 53.17504 | -1.76256 | 8816 ft | 276 kts | 335° |
| 2026-05-05 02:37 | 53.19251 | -1.77567 | 8508 ft | 275 kts | 335° |
| 2026-05-05 02:37 | 53.20998 | -1.78854 | 8199 ft | 274 kts | 335° |
| 2026-05-05 02:38 | 53.22738 | -1.80149 | 7888 ft | 273 kts | 335° |
| 2026-05-05 02:38 | 53.24469 | -1.81447 | 7577 ft | 272 kts | 335° |
| 2026-05-05 02:38 | 53.26191 | -1.82745 | 7264 ft | 271 kts | 335° |
| 2026-05-05 02:38 | 53.27909 | -1.84046 | 6951 ft | 271 kts | 335° |
| 2026-05-05 02:39 | 53.29622 | -1.85346 | 6637 ft | 270 kts | 335° |
| 2026-05-05 02:39 | 53.31328 | -1.86643 | 6322 ft | 269 kts | 335° |
| 2026-05-05 02:39 | 53.33029 | -1.87939 | 6005 ft | 268 kts | 335° |
| 2026-05-05 02:39 | 53.34723 | -1.89230 | 5689 ft | 268 kts | 335° |
| 2026-05-05 02:40 | 53.36414 | -1.90521 | 5371 ft | 267 kts | 335° |
| 2026-05-05 02:40 | 53.38101 | -1.91810 | 5060 ft | 266 kts | 335° |
| 2026-05-05 02:40 | 53.39740 | -1.93063 | 4740 ft | 252 kts | 335° |
| 2026-05-05 02:40 | 53.41283 | -1.94243 | 4558 ft | 234 kts | 335° |
| 2026-05-05 02:41 | 53.42708 | -1.95333 | 4374 ft | 218 kts | 335° |
| 2026-05-05 02:41 | 53.44076 | -1.96380 | 3956 ft | 214 kts | 335° |
| 2026-05-05 02:41 | 53.45404 | -1.97395 | 3655 ft | 204 kts | 335° |
| 2026-05-05 02:41 | 53.46650 | -1.98348 | 3538 ft | 188 kts | 334° |
| 2026-05-05 02:42 | 53.47572 | -1.99702 | 3438 ft | 180 kts | 295° |
| 2026-05-05 02:42 | 53.47548 | -2.01745 | 3443 ft | 182 kts | 249° |
| 2026-05-05 02:42 | 53.46879 | -2.03592 | 3494 ft | 188 kts | 237° |
| 2026-05-05 02:42 | 53.46071 | -2.05337 | 3311 ft | 191 kts | 233° |
| 2026-05-05 02:43 | 53.45230 | -2.07063 | 3059 ft | 190 kts | 233° |
| 2026-05-05 02:43 | 53.44413 | -2.08751 | 2814 ft | 183 kts | 233° |
| 2026-05-05 02:43 | 53.43622 | -2.10391 | 2564 ft | 178 kts | 233° |
| 2026-05-05 02:43 | 53.42851 | -2.11992 | 2326 ft | 175 kts | 232° |
| 2026-05-05 02:44 | 53.42096 | -2.13560 | 2094 ft | 170 kts | 232° |
| 2026-05-05 02:44 | 53.41366 | -2.15076 | 1874 ft | 165 kts | 232° |
| 2026-05-05 02:44 | 53.40663 | -2.16534 | 1682 ft | 156 kts | 232° |
| 2026-05-05 02:44 | 53.39988 | -2.17936 | 1462 ft | 153 kts | 231° |
| 2026-05-05 02:45 | 53.39326 | -2.19308 | 1257 ft | 150 kts | 231° |
| 2026-05-05 02:45 | 53.38672 | -2.20664 | 1059 ft | 149 kts | 231° |
| 2026-05-05 02:45 | 53.38020 | -2.22015 | 863 ft | 149 kts | 231° |
| 2026-05-05 02:45 | 53.37369 | -2.23367 | 664 ft | 149 kts | 231° |
| 2026-05-05 02:46 | 53.36716 | -2.24708 | 473 ft | 147 kts | 231° |
| 2026-05-05 02:46 | 53.36074 | -2.26050 | 282 ft | 146 kts | 231° |
| 2026-05-05 02:46 | 53.35496 | -2.27246 | 266 ft | 108 kts | 232° |
| 2026-05-05 02:46 | 53.35134 | -2.28001 | 265 ft | 69 kts | 232° |
| 2026-05-05 02:47 | 53.34958 | -2.28504 | 265 ft | 38 kts | 261° |
| 2026-05-05 02:47 | 53.34957 | -2.28754 | 265 ft | 16 kts | 325° |
| 2026-05-05 02:47 | 53.35035 | -2.28703 | 265 ft | 12 kts | 50° |
| 2026-05-05 02:47 | 53.35089 | -2.28594 | 265 ft | 12 kts | 50° |
| 2026-05-05 02:48 | 53.35153 | -2.28463 | 265 ft | 16 kts | 51° |
| 2026-05-05 02:48 | 53.35234 | -2.28295 | 265 ft | 26 kts | 50° |
| 2026-05-05 02:48 | 53.35373 | -2.28057 | 265 ft | 28 kts | 43° |
| 2026-05-05 02:48 | 53.35459 | -2.27833 | 265 ft | 22 kts | 83° |
| 2026-05-05 02:49 | 53.35538 | -2.27624 | 265 ft | 21 kts | 51° |
| 2026-05-05 02:49 | 53.35627 | -2.27439 | 265 ft | 20 kts | 51° |
| 2026-05-05 02:49 | 53.35714 | -2.27258 | 265 ft | 19 kts | 51° |
| 2026-05-05 02:49 | 53.35796 | -2.27087 | 265 ft | 18 kts | 52° |
| 2026-05-05 02:50 | 53.35863 | -2.26917 | 265 ft | 17 kts | 55° |
| 2026-05-05 02:50 | 53.35940 | -2.26851 | 265 ft | 13 kts | 358° |
| 2026-05-05 02:50 | 53.36010 | -2.26781 | 265 ft | 12 kts | 51° |
| 2026-05-05 02:50 | 53.36061 | -2.26757 | 265 ft | 8 kts | 311° |
| 2026-05-05 02:51 | 53.36091 | -2.26811 | 265 ft | 3 kts | 314° |
| 2026-05-05 02:51 | 53.36092 | -2.26812 | 265 ft | 0 kts | 314° |